createdAt,value
2018-09-17T07:40:47.357Z,11.57
2018-09-17T07:46:41.288Z,8.97
2018-09-17T08:01:33.422Z,11.40
2018-09-17T08:04:19.836Z,11.23
2018-09-17T08:10:02.671Z,11.87
2018-09-17T08:12:44.358Z,14.93
2018-09-17T08:15:29.814Z,9.73
2018-09-17T08:18:09.315Z,10.27
2018-09-17T08:23:42.757Z,9.40
2018-09-17T08:26:23.014Z,13.27
2018-09-17T08:29:03.613Z,9.20
2018-09-17T08:31:44.420Z,8.93
2018-09-17T08:34:24.633Z,12.97
2018-09-17T08:36:52.853Z,11.30
2018-09-17T08:39:33.509Z,9.90
2018-09-17T08:42:14.213Z,10.30
2018-09-17T08:45:01.082Z,9.87
2018-09-17T08:47:49.533Z,9.87
2018-09-17T08:50:36.301Z,12.03
2018-09-17T09:02:16.837Z,10.20
2018-09-17T09:05:03.393Z,11.80
2018-09-17T09:16:48.604Z,9.97
2018-09-17T13:53:58.058Z,4.00
2018-09-17T14:02:36.450Z,5.40
2018-09-17T14:05:10.449Z,4.97
2018-09-17T14:07:39.182Z,3.60
2018-09-17T14:10:08.388Z,4.80
2018-09-17T14:12:37.589Z,3.80
2018-09-17T14:18:04.949Z,3.47
2018-09-17T14:23:47.108Z,4.63
2018-09-17T14:29:39.034Z,5.07
2018-09-17T14:32:19.795Z,3.73
2018-09-17T14:34:49.027Z,4.93
2018-09-17T14:37:17.971Z,4.80
2018-09-17T14:39:47.731Z,4.90
2018-09-17T14:42:16.927Z,4.30
2018-09-17T14:44:45.733Z,3.73
2018-09-17T14:47:16.015Z,4.97
2018-09-17T14:49:54.830Z,4.70
2018-09-17T14:52:23.571Z,3.67
2018-09-17T14:54:51.746Z,4.93
2018-09-17T14:57:20.150Z,5.00
2018-09-17T14:59:49.209Z,4.37
2018-09-17T15:02:19.610Z,5.53
2018-09-17T15:04:54.566Z,3.80
2018-09-17T15:07:23.319Z,5.27
2018-09-17T15:09:52.215Z,3.90
2018-09-17T15:12:21.815Z,3.90
2018-09-17T15:14:51.906Z,3.60
2018-09-17T15:17:21.095Z,8.60
2018-09-17T15:19:50.063Z,4.93
2018-09-17T15:22:22.617Z,5.20
2018-09-17T15:24:51.453Z,4.87
2018-09-17T15:27:26.483Z,5.33
2018-09-17T15:29:55.048Z,4.63
2018-09-17T15:32:23.967Z,3.33
2018-09-17T15:34:53.835Z,5.93
2018-09-17T15:37:24.174Z,4.63
2018-09-17T15:39:52.687Z,3.93
2018-09-17T15:42:21.261Z,5.33
2018-09-17T15:44:49.747Z,5.73
2018-09-17T15:47:19.175Z,5.33
2018-09-17T15:49:48.051Z,7.93
2018-09-17T15:52:17.350Z,5.43
2018-09-17T15:54:49.338Z,5.60
2018-09-17T15:57:21.479Z,7.63
2018-09-17T15:59:50.090Z,5.43
2018-09-17T16:02:30.862Z,4.93
2018-09-17T16:05:00.069Z,4.00
2018-09-17T16:07:28.855Z,4.63
2018-09-17T16:13:55.261Z,4.93
2018-09-17T16:16:29.247Z,5.13
2018-09-17T16:19:01.477Z,4.37
2018-09-17T16:21:31.683Z,6.30
2018-09-17T16:27:20.519Z,7.03
2018-09-17T16:42:48.208Z,4.20
2018-09-17T20:42:56.082Z,10.43
2018-09-17T20:45:36.585Z,17.17
2018-09-17T20:48:04.744Z,10.30
2018-09-17T20:53:53.985Z,8.30
2018-09-17T20:56:40.478Z,9.27
2018-09-17T20:59:20.736Z,7.57
2018-09-17T21:13:56.087Z,9.60
2018-09-17T21:16:42.461Z,9.57
2018-09-17T21:19:22.925Z,8.27
2018-09-17T21:22:09.597Z,7.83
2018-09-17T21:24:50.072Z,8.20
2018-09-17T21:27:36.535Z,7.47
2018-09-17T21:30:16.869Z,7.00
2018-09-17T21:33:03.565Z,8.23
2018-09-17T21:35:43.845Z,6.90
2018-09-17T21:38:24.373Z,7.50
2018-09-17T21:41:11.345Z,8.03
2018-09-17T21:43:51.904Z,9.67
2018-09-17T21:46:32.834Z,7.10
2018-09-17T21:49:13.249Z,6.77
2018-09-17T21:51:53.878Z,7.73
2018-09-17T21:54:32.560Z,8.90
2018-09-17T21:57:23.548Z,8.23
2018-09-17T22:00:11.965Z,6.00
2018-09-17T22:02:52.305Z,5.87
2018-09-17T22:05:33.240Z,6.23
2018-09-17T22:08:19.982Z,7.10
2018-09-17T22:14:01.961Z,6.20
2018-09-17T22:16:48.796Z,6.37
2018-09-17T22:22:38.900Z,5.40
2018-09-17T22:25:25.193Z,6.47
2018-09-17T22:28:15.781Z,6.20
2018-09-17T22:31:02.332Z,10.10
2018-09-17T22:33:48.873Z,5.70
2018-09-17T22:39:37.881Z,5.90
2018-09-17T22:42:26.557Z,7.07
2018-09-17T22:51:02.101Z,9.53
2018-09-17T22:53:48.877Z,6.47
2018-09-17T22:56:29.105Z,6.00
2018-09-17T23:02:22.605Z,7.60
2018-09-17T23:05:02.929Z,7.80
2018-09-17T23:07:43.600Z,6.37
2018-09-17T23:10:30.290Z,7.47
2018-09-17T23:13:10.489Z,7.10
2018-09-17T23:15:57.242Z,6.67
2018-09-17T23:18:37.465Z,9.90
2018-09-17T23:21:24.257Z,6.70
2018-09-17T23:24:11.288Z,8.20
2018-09-17T23:26:52.351Z,5.90
2018-09-17T23:29:33.210Z,7.60
2018-09-17T23:32:13.887Z,7.57
2018-09-17T23:41:04.325Z,8.93
2018-09-17T23:46:51.549Z,8.97
2018-09-17T23:49:44.011Z,8.67
2018-09-17T23:55:27.654Z,6.97
